Time;durP1;ratioP1;P1;durP2;ratioP2;P2;SDS_P1;SDS_P2;PMS_P1;PMS_P2;Temp;Humidity;BMP_temperature;BMP_pressure;BME280_temperature;BME280_humidity;BME280_pressure;Samples;Min_cycle;Max_cycle;Signal;HPM_P1;HPM_P2
2021/12/17 00:02:49;;;;;;;57.70;28.13;;;10.10;99.90;;;;;;5033833;28;20199;-67
2021/12/17 00:07:21;;;;;;;51.13;25.97;;;10.10;99.90;;;;;;5033894;28;20175;-66
2021/12/17 00:09:47;;;;;;;61.93;28.87;;;10.00;99.90;;;;;;5033870;28;20581;-66
2021/12/17 00:12:16;;;;;;;51.13;27.30;;;10.00;99.90;;;;;;5033611;28;20188;-66
2021/12/17 00:14:47;;;;;;;43.03;23.87;;;10.00;99.90;;;;;;5032884;28;20550;-67
2021/12/17 00:17:17;;;;;;;60.77;26.87;;;10.00;99.90;;;;;;5033475;28;20183;-65
2021/12/17 00:50:33;;;;;;;53.97;28.87;;;10.20;99.90;;;;;;5033025;28;20179;-66
2021/12/17 00:52:39;;;;;;;50.90;28.23;;;10.20;99.90;;;;;;5032954;28;20199;-66
2021/12/17 00:55:07;;;;;;;47.30;25.73;;;10.20;99.90;;;;;;5033170;28;20179;-66
2021/12/17 00:57:39;;;;;;;46.10;26.30;;;10.20;99.90;;;;;;5032882;28;20194;-66
2021/12/17 01:00:18;;;;;;;47.00;25.43;;;10.10;99.90;;;;;;5015115;28;20194;-66
2021/12/17 01:02:44;;;;;;;54.30;26.83;;;10.10;99.90;;;;;;5032363;28;20237;-66
2021/12/17 01:05:31;;;;;;;44.10;23.77;;;10.10;99.90;;;;;;5032767;28;20210;-65
2021/12/17 01:07:58;;;;;;;43.83;23.90;;;10.00;99.90;;;;;;5031770;28;20237;-65
2021/12/17 01:10:28;;;;;;;49.90;25.07;;;10.00;99.90;;;;;;5032892;28;20298;-65
2021/12/17 01:12:54;;;;;;;42.03;24.33;;;10.00;99.90;;;;;;5032361;28;20179;-65
2021/12/17 01:15:20;;;;;;;53.47;26.40;;;10.00;99.90;;;;;;5032673;28;20197;-66
2021/12/17 01:17:51;;;;;;;43.60;24.37;;;10.00;99.90;;;;;;5032465;28;20190;-67
2021/12/17 01:23:18;;;;;;;52.70;27.97;;;10.10;99.90;;;;;;5031485;28;20253;-66
2021/12/17 01:36:26;;;;;;;46.93;24.57;;;10.10;99.90;;;;;;5032537;28;20636;-65
2021/12/17 01:43:57;;;;;;;48.33;25.00;;;9.90;99.90;;;;;;5012026;28;20176;-65
2021/12/17 01:46:28;;;;;;;43.57;25.03;;;10.00;99.90;;;;;;5012494;28;20276;-65
2021/12/17 02:00:34;;;;;;;49.50;24.83;;;10.10;99.90;;;;;;5031882;28;20204;-66
2021/12/17 02:03:02;;;;;;;46.60;23.77;;;10.10;99.90;;;;;;5031582;28;20187;-65
2021/12/17 02:05:28;;;;;;;41.27;24.73;;;10.10;99.90;;;;;;5031818;28;20207;-66
2021/12/17 02:07:57;;;;;;;44.93;24.07;;;10.10;99.90;;;;;;5032016;28;20236;-66
2021/12/17 02:11:05;;;;;;;42.47;25.13;;;10.10;99.90;;;;;;5031718;28;20570;-66
2021/12/17 02:32:07;;;;;;;39.30;22.43;;;10.10;99.90;;;;;;5031032;28;20180;-66
2021/12/17 02:37:24;;;;;;;42.37;22.43;;;10.00;99.90;;;;;;5031413;28;20554;-65
2021/12/17 02:47:32;;;;;;;40.97;22.83;;;10.00;99.90;;;;;;5031104;28;20216;-65
2021/12/17 02:49:58;;;;;;;45.23;23.43;;;10.00;99.90;;;;;;5031197;28;20187;-65
2021/12/17 02:52:29;;;;;;;44.00;23.40;;;10.00;99.90;;;;;;5030758;28;20649;-67
2021/12/17 02:54:57;;;;;;;36.00;21.13;;;9.90;99.90;;;;;;5030252;28;20645;-64
2021/12/17 02:57:25;;;;;;;37.63;21.40;;;9.90;99.90;;;;;;5031132;28;20167;-64
2021/12/17 02:59:50;;;;;;;45.50;22.90;;;9.90;99.90;;;;;;5031209;28;20773;-65
2021/12/17 03:02:18;;;;;;;39.57;22.60;;;9.80;99.90;;;;;;5030562;28;20182;-66
2021/12/17 03:04:44;;;;;;;42.00;22.53;;;9.80;99.90;;;;;;5030823;28;20197;-66
2021/12/17 03:07:12;;;;;;;41.00;22.93;;;9.90;99.90;;;;;;5030522;28;20221;-66
2021/12/17 03:12:31;;;;;;;40.87;21.20;;;10.00;99.90;;;;;;5030421;28;20185;-65
2021/12/17 03:15:09;;;;;;;46.20;22.63;;;10.00;99.90;;;;;;5028763;28;20175;-66
2021/12/17 03:18:04;;;;;;;45.60;23.20;;;9.90;99.90;;;;;;5029590;28;20176;-66
2021/12/17 03:25:49;;;;;;;42.57;22.37;;;9.90;99.90;;;;;;5030200;28;20218;-66
2021/12/17 03:28:15;;;;;;;39.77;23.67;;;10.00;99.90;;;;;;5030525;28;20187;-66
2021/12/17 03:30:41;;;;;;;43.10;22.90;;;10.00;99.90;;;;;;5030670;28;20219;-66
2021/12/17 03:33:07;;;;;;;45.67;23.70;;;10.00;99.90;;;;;;5030603;28;20554;-66
2021/12/17 03:35:32;;;;;;;43.97;22.03;;;10.00;99.90;;;;;;5030336;28;20179;-66
2021/12/17 03:37:58;;;;;;;43.93;23.27;;;10.00;99.90;;;;;;5030526;28;20186;-66
2021/12/17 03:40:24;;;;;;;43.53;23.73;;;10.00;99.90;;;;;;5030435;28;20313;-66
2021/12/17 03:42:51;;;;;;;49.47;24.17;;;10.00;99.90;;;;;;5029937;28;20255;-66
2021/12/17 03:45:19;;;;;;;52.57;24.80;;;10.00;99.90;;;;;;5029137;28;20281;-66
2021/12/17 03:47:45;;;;;;;41.33;24.27;;;10.00;99.90;;;;;;5029701;28;20519;-65
2021/12/17 03:50:11;;;;;;;44.50;23.43;;;9.90;99.90;;;;;;5029027;28;20206;-66
2021/12/17 03:52:37;;;;;;;40.10;20.90;;;10.00;99.90;;;;;;5029382;28;20609;-65
2021/12/17 03:55:04;;;;;;;41.80;22.53;;;9.90;99.90;;;;;;5032225;28;20187;-65
2021/12/17 03:57:30;;;;;;;40.87;23.93;;;9.90;99.90;;;;;;5034107;28;20180;-66
2021/12/17 03:59:55;;;;;;;43.73;22.20;;;9.80;99.90;;;;;;5032990;28;20305;-66
2021/12/17 04:02:21;;;;;;;47.90;23.53;;;9.80;99.90;;;;;;5033627;28;20610;-66
2021/12/17 04:04:47;;;;;;;41.27;24.27;;;9.90;99.90;;;;;;5033672;28;20668;-66
2021/12/17 04:07:13;;;;;;;43.27;22.77;;;9.90;99.90;;;;;;5034222;28;20179;-66
2021/12/17 04:09:38;;;;;;;38.07;22.30;;;9.90;99.90;;;;;;5033613;28;20266;-66
2021/12/17 04:12:09;;;;;;;45.03;21.63;;;9.90;99.90;;;;;;5033601;28;20637;-66
2021/12/17 04:14:43;;;;;;;31.97;20.17;;;9.90;99.90;;;;;;5033641;28;20644;-66
2021/12/17 04:17:10;;;;;;;46.07;23.13;;;9.80;99.90;;;;;;5033467;28;20175;-66
2021/12/17 04:19:35;;;;;;;30.47;20.93;;;9.90;99.90;;;;;;5033597;28;20167;-66
2021/12/17 04:22:02;;;;;;;37.87;22.00;;;9.90;99.90;;;;;;5033296;28;20186;-65
2021/12/17 04:24:28;;;;;;;37.53;20.57;;;9.90;99.90;;;;;;5030672;28;20176;-66
2021/12/17 04:26:53;;;;;;;38.30;21.37;;;9.90;99.90;;;;;;5033640;28;20176;-66
2021/12/17 04:29:21;;;;;;;38.77;21.10;;;9.90;99.90;;;;;;5033424;28;20191;-66
2021/12/17 04:31:55;;;;;;;44.03;21.63;;;9.90;99.90;;;;;;5033606;28;20277;-66
2021/12/17 04:34:24;;;;;;;43.47;22.27;;;9.90;99.90;;;;;;5013068;28;20172;-66
2021/12/17 04:36:52;;;;;;;46.57;23.07;;;9.90;99.90;;;;;;5023785;28;20262;-65
2021/12/17 04:39:20;;;;;;;39.10;21.83;;;9.90;99.90;;;;;;5033697;28;20313;-67
2021/12/17 04:41:52;;;;;;;39.80;22.87;;;9.90;99.90;;;;;;5033021;28;20292;-65
2021/12/17 04:44:25;;;;;;;41.73;21.83;;;9.90;99.90;;;;;;5032210;28;20178;-65
2021/12/17 04:57:43;;;;;;;38.17;23.60;;;9.80;99.90;;;;;;5033215;28;20241;-66
2021/12/17 05:00:23;;;;;;;48.20;23.70;;;9.90;99.90;;;;;;5030943;28;20195;-65
2021/12/17 05:02:53;;;;;;;41.57;23.13;;;9.80;99.90;;;;;;5030597;28;20175;-66
2021/12/17 05:05:21;;;;;;;41.50;22.73;;;9.80;99.90;;;;;;5032714;28;20199;-66
2021/12/17 05:07:59;;;;;;;45.13;23.77;;;9.80;99.90;;;;;;5032593;28;20277;-66
2021/12/17 05:18:25;;;;;;;38.87;22.87;;;9.80;99.90;;;;;;5033163;28;20229;-66
2021/12/17 05:21:00;;;;;;;37.17;22.80;;;9.70;99.90;;;;;;5032328;28;20660;-67
2021/12/17 05:23:31;;;;;;;48.53;22.43;;;9.70;99.90;;;;;;5031456;28;20258;-65
2021/12/17 05:25:58;;;;;;;33.83;21.63;;;9.70;99.90;;;;;;5032214;28;20207;-66
2021/12/17 05:28:24;;;;;;;44.10;23.43;;;9.70;99.90;;;;;;5032093;28;20176;-65
2021/12/17 05:30:50;;;;;;;45.30;22.70;;;9.70;99.90;;;;;;5032021;28;20242;-65
2021/12/17 05:33:18;;;;;;;44.03;22.57;;;9.70;99.90;;;;;;5032191;28;20168;-65
2021/12/17 05:35:44;;;;;;;37.27;22.33;;;9.70;99.90;;;;;;5031346;28;20327;-65
2021/12/17 05:38:11;;;;;;;43.20;22.53;;;9.60;99.90;;;;;;5032333;28;20171;-65
2021/12/17 05:40:38;;;;;;;44.87;21.20;;;9.50;99.90;;;;;;5031801;28;20225;-66
2021/12/17 05:43:05;;;;;;;37.70;22.13;;;9.50;99.90;;;;;;5031761;28;20254;-66
2021/12/17 05:45:37;;;;;;;51.60;22.33;;;9.50;99.90;;;;;;5031697;28;20318;-66
2021/12/17 05:48:08;;;;;;;41.83;22.47;;;9.50;99.90;;;;;;5032368;28;20167;-65
2021/12/17 05:50:36;;;;;;;45.07;23.10;;;9.40;99.90;;;;;;5031751;28;20195;-65
2021/12/17 05:53:03;;;;;;;40.27;23.50;;;9.40;99.90;;;;;;5031921;28;20175;-66
2021/12/17 05:55:28;;;;;;;39.00;22.33;;;9.40;99.90;;;;;;5031745;28;20179;-66
2021/12/17 05:57:54;;;;;;;40.43;22.97;;;9.40;99.90;;;;;;5031373;28;20522;-66
2021/12/17 06:00:21;;;;;;;43.53;24.83;;;9.40;99.90;;;;;;5031898;28;20187;-66
2021/12/17 06:02:47;;;;;;;41.60;24.13;;;9.40;99.90;;;;;;5031141;28;20672;-66
2021/12/17 06:05:13;;;;;;;52.07;24.70;;;9.40;99.90;;;;;;5031864;28;20210;-65
2021/12/17 06:07:39;;;;;;;46.57;24.97;;;9.40;99.90;;;;;;5032192;28;20184;-65
2021/12/17 06:10:06;;;;;;;52.57;23.77;;;9.40;99.90;;;;;;5031841;28;20279;-66
2021/12/17 06:12:32;;;;;;;38.23;22.63;;;9.40;99.90;;;;;;5031278;28;20263;-66
2021/12/17 06:14:58;;;;;;;46.97;22.73;;;9.40;99.90;;;;;;5031416;28;20267;-65
2021/12/17 06:17:23;;;;;;;46.43;22.20;;;9.40;99.90;;;;;;5031196;28;20251;-66
2021/12/17 06:19:49;;;;;;;53.77;25.07;;;9.50;99.90;;;;;;5031241;28;20175;-66
2021/12/17 06:22:15;;;;;;;46.53;23.40;;;9.40;99.90;;;;;;5031364;28;20449;-66
2021/12/17 06:24:44;;;;;;;49.27;24.73;;;9.40;99.90;;;;;;5030844;28;20195;-65
2021/12/17 06:27:15;;;;;;;46.37;24.07;;;9.40;99.90;;;;;;5031338;28;20168;-66
2021/12/17 06:29:41;;;;;;;47.17;23.87;;;9.40;99.90;;;;;;5031133;28;20175;-65
2021/12/17 06:32:07;;;;;;;47.00;24.73;;;9.40;99.90;;;;;;5031692;28;20179;-65
2021/12/17 06:34:33;;;;;;;42.47;25.37;;;9.40;99.90;;;;;;5031131;28;20203;-65
2021/12/17 06:36:59;;;;;;;45.50;24.07;;;9.40;99.90;;;;;;5031143;28;20211;-65
2021/12/17 06:39:25;;;;;;;53.90;24.53;;;9.30;99.90;;;;;;5030192;28;20585;-66
2021/12/17 06:41:50;;;;;;;50.63;24.63;;;9.30;99.90;;;;;;5023915;28;20277;-65
2021/12/17 06:44:22;;;;;;;46.80;22.53;;;9.40;99.90;;;;;;5030875;28;20179;-66
2021/12/17 06:46:59;;;;;;;43.37;25.23;;;9.30;99.90;;;;;;5031181;28;20226;-66
2021/12/17 07:10:29;;;;;;;46.93;25.57;;;9.60;99.90;;;;;;5030851;28;20199;-66
2021/12/17 07:34:16;;;;;;;48.97;25.20;;;9.30;99.90;;;;;;5034709;28;20263;-67
2021/12/17 07:38:35;;;;;;;44.73;24.93;;;9.40;99.90;;;;;;5034742;28;20233;-66
2021/12/17 07:39:30;;;;;;;44.47;23.27;;;9.40;99.90;;;;;;5033835;28;20183;-67
2021/12/17 07:41:56;;;;;;;45.23;24.33;;;9.40;99.90;;;;;;5034349;28;20187;-67
2021/12/17 07:44:22;;;;;;;40.77;23.37;;;9.40;99.90;;;;;;5034466;28;20597;-66
2021/12/17 07:46:47;;;;;;;42.97;23.20;;;9.40;99.90;;;;;;5033394;28;20212;-67
2021/12/17 07:49:13;;;;;;;45.73;24.37;;;9.30;99.90;;;;;;5031704;28;20226;-66
2021/12/17 07:51:38;;;;;;;46.23;25.03;;;9.30;99.90;;;;;;5014154;28;20620;-66
2021/12/17 07:54:04;;;;;;;54.27;26.97;;;9.40;99.90;;;;;;5024848;28;20179;-67
2021/12/17 07:56:37;;;;;;;46.00;24.90;;;9.40;99.90;;;;;;5034051;28;20179;-65
2021/12/17 07:59:03;;;;;;;48.07;25.10;;;9.50;99.90;;;;;;5034028;28;20668;-67
2021/12/17 08:01:29;;;;;;;45.97;24.87;;;9.40;99.90;;;;;;5034006;28;20387;-67
2021/12/17 08:03:55;;;;;;;46.23;24.13;;;9.40;99.90;;;;;;5034206;28;20270;-67
2021/12/17 08:06:20;;;;;;;49.70;25.57;;;9.30;99.90;;;;;;5034506;28;20387;-67
2021/12/17 08:08:46;;;;;;;56.67;27.00;;;9.20;99.90;;;;;;5033814;28;20167;-68
2021/12/17 08:11:12;;;;;;;49.77;24.77;;;9.30;99.90;;;;;;5034171;28;20586;-67
2021/12/17 08:13:38;;;;;;;59.60;25.30;;;9.30;99.90;;;;;;5032236;28;20163;-67
2021/12/17 08:19:08;;;;;;;55.73;26.70;;;9.40;99.90;;;;;;5034132;28;20176;-68
2021/12/17 08:32:06;;;;;;;53.37;25.33;;;9.60;99.90;;;;;;5033900;28;20163;-67
2021/12/17 08:34:32;;;;;;;52.27;24.90;;;9.50;99.90;;;;;;5033712;28;20172;-66
2021/12/17 08:36:58;;;;;;;62.93;25.87;;;9.40;99.90;;;;;;5033560;28;20167;-67
2021/12/17 08:39:25;;;;;;;48.80;25.33;;;9.50;99.90;;;;;;5032005;28;20241;-67
2021/12/17 08:41:53;;;;;;;56.97;26.40;;;9.50;99.90;;;;;;5031698;28;20234;-67
2021/12/17 08:44:19;;;;;;;59.53;27.00;;;9.50;99.90;;;;;;5033255;28;20251;-67
2021/12/17 08:46:44;;;;;;;59.83;25.43;;;9.50;99.90;;;;;;5033312;28;20290;-67
2021/12/17 08:49:10;;;;;;;60.10;25.53;;;9.60;99.90;;;;;;5033500;28;20267;-66
2021/12/17 08:51:37;;;;;;;61.97;25.77;;;9.60;99.90;;;;;;5033199;28;20194;-66
2021/12/17 08:54:03;;;;;;;68.50;27.07;;;9.60;99.90;;;;;;5033034;28;20183;-66
2021/12/17 08:56:34;;;;;;;52.33;27.40;;;9.60;99.90;;;;;;5033192;28;20175;-66
2021/12/17 08:59:06;;;;;;;64.53;24.93;;;9.60;99.90;;;;;;5032692;28;20277;-66
2021/12/17 09:01:31;;;;;;;56.73;25.03;;;9.60;99.90;;;;;;5032329;28;20759;-65
2021/12/17 09:03:57;;;;;;;63.37;25.93;;;9.60;99.90;;;;;;5032328;28;20211;-66
2021/12/17 09:06:26;;;;;;;56.73;25.97;;;9.60;99.90;;;;;;5033001;28;20204;-66
2021/12/17 09:08:56;;;;;;;63.00;26.70;;;9.60;99.90;;;;;;5032716;28;20833;-65
2021/12/17 09:11:24;;;;;;;76.93;26.17;;;9.50;99.90;;;;;;5029501;28;20206;-66
2021/12/17 09:13:51;;;;;;;61.00;25.27;;;9.60;99.90;;;;;;5032680;28;20586;-66
2021/12/17 09:16:20;;;;;;;55.90;25.00;;;9.60;99.90;;;;;;5032658;28;20186;-66
2021/12/17 09:18:47;;;;;;;62.70;24.43;;;9.60;99.90;;;;;;5032831;28;20174;-67
2021/12/17 09:21:12;;;;;;;60.63;27.13;;;9.70;99.90;;;;;;5032549;28;20191;-67
2021/12/17 09:23:39;;;;;;;55.77;23.73;;;9.60;99.90;;;;;;5032341;28;20771;-66
2021/12/17 09:26:05;;;;;;;55.13;23.93;;;9.60;99.90;;;;;;5032164;28;20318;-66
2021/12/17 09:28:31;;;;;;;56.00;23.60;;;9.60;99.90;;;;;;5032228;28;20425;-66
2021/12/17 09:30:58;;;;;;;62.50;25.27;;;9.60;99.90;;;;;;5031560;28;20619;-66
2021/12/17 09:33:25;;;;;;;64.83;25.60;;;9.60;99.90;;;;;;5013014;28;20173;-66
2021/12/17 09:35:51;;;;;;;70.60;25.27;;;9.60;99.90;;;;;;5017446;28;20179;-65
2021/12/17 09:38:18;;;;;;;61.00;25.43;;;9.60;99.90;;;;;;5032325;28;20703;-66
2021/12/17 09:40:44;;;;;;;52.57;24.40;;;9.60;99.90;;;;;;5032309;28;20265;-68
2021/12/17 09:43:11;;;;;;;62.07;25.23;;;9.70;99.90;;;;;;5026637;28;20657;-67
2021/12/17 09:45:37;;;;;;;72.97;27.50;;;9.70;99.90;;;;;;5030034;28;20195;-66
2021/12/17 09:48:04;;;;;;;63.67;25.20;;;9.80;99.90;;;;;;5012778;28;20262;-66
2021/12/17 09:50:30;;;;;;;66.53;24.60;;;9.80;99.90;;;;;;5012465;28;20192;-66
2021/12/17 09:52:56;;;;;;;61.30;24.13;;;9.80;99.90;;;;;;5030999;28;20707;-67
2021/12/17 09:55:22;;;;;;;58.53;25.73;;;9.80;99.90;;;;;;5032169;28;20187;-67
2021/12/17 09:57:48;;;;;;;54.13;23.27;;;9.90;99.90;;;;;;5031834;28;20233;-66
2021/12/17 10:00:21;;;;;;;69.33;26.17;;;9.80;99.90;;;;;;5031994;28;20597;-66
2021/12/17 10:02:48;;;;;;;57.97;25.70;;;9.80;99.90;;;;;;5031418;28;20212;-67
2021/12/17 10:05:28;;;;;;;71.77;28.23;;;9.70;99.90;;;;;;5031708;28;20654;-67
2021/12/17 10:08:00;;;;;;;62.93;23.77;;;9.80;99.90;;;;;;5031688;28;20217;-68
2021/12/17 10:10:41;;;;;;;59.27;23.07;;;9.80;99.90;;;;;;5031894;28;20194;-66
2021/12/17 10:13:10;;;;;;;60.20;23.77;;;9.80;99.90;;;;;;5031349;28;20171;-68
2021/12/17 10:15:38;;;;;;;58.47;22.73;;;9.80;99.90;;;;;;5030259;28;20219;-66
2021/12/17 10:18:04;;;;;;;57.30;23.07;;;9.90;99.90;;;;;;5031574;28;20211;-66
2021/12/17 10:20:34;;;;;;;64.70;24.60;;;9.90;99.90;;;;;;5031068;28;20238;-65
2021/12/17 10:22:59;;;;;;;58.10;23.13;;;9.90;99.90;;;;;;5031035;28;20191;-67
2021/12/17 10:25:26;;;;;;;52.80;22.87;;;9.90;99.90;;;;;;5031653;28;20281;-66
2021/12/17 10:27:57;;;;;;;66.47;22.87;;;9.90;99.90;;;;;;5031235;28;20657;-67
2021/12/17 10:30:23;;;;;;;56.23;22.67;;;10.00;99.90;;;;;;5031744;28;20317;-67
2021/12/17 10:32:52;;;;;;;65.80;22.77;;;10.00;99.90;;;;;;5030910;28;20193;-67
2021/12/17 10:35:23;;;;;;;57.63;21.23;;;10.10;99.90;;;;;;5031606;28;20183;-67
2021/12/17 10:37:57;;;;;;;44.80;20.27;;;10.00;99.90;;;;;;5030900;28;20183;-67
2021/12/17 10:40:25;;;;;;;48.53;21.83;;;10.00;99.90;;;;;;5031200;28;20210;-67
2021/12/17 10:42:59;;;;;;;54.03;22.53;;;10.00;99.90;;;;;;5030836;28;20410;-66
2021/12/17 10:45:30;;;;;;;64.87;23.33;;;10.00;99.90;;;;;;5031463;28;20277;-66
2021/12/17 10:50:47;;;;;;;60.00;22.80;;;10.00;99.90;;;;;;5030948;28;20196;-66
2021/12/17 10:53:13;;;;;;;58.63;23.13;;;10.00;99.90;;;;;;5030646;28;20495;-66
2021/12/17 10:55:43;;;;;;;59.07;22.20;;;10.00;99.90;;;;;;5030997;28;20183;-66
2021/12/17 10:58:09;;;;;;;65.97;22.93;;;9.90;99.90;;;;;;5031269;28;20184;-65
2021/12/17 11:00:46;;;;;;;59.53;24.43;;;9.90;99.90;;;;;;5030823;28;20250;-68
2021/12/17 11:03:12;;;;;;;55.40;21.13;;;9.90;99.90;;;;;;5031292;28;20171;-66
2021/12/17 11:05:37;;;;;;;59.97;23.90;;;9.90;99.90;;;;;;5034656;28;20210;-66
2021/12/17 11:08:19;;;;;;;55.63;20.93;;;9.80;99.90;;;;;;5035388;28;20178;-66
2021/12/17 11:10:56;;;;;;;53.10;21.77;;;9.90;99.90;;;;;;5034694;28;20286;-66
2021/12/17 11:13:21;;;;;;;55.87;22.13;;;9.90;99.90;;;;;;5034834;28;20637;-66
2021/12/17 11:15:49;;;;;;;57.90;21.30;;;9.90;99.90;;;;;;5034899;28;20191;-66
2021/12/17 11:18:15;;;;;;;50.60;20.77;;;9.90;99.90;;;;;;5035149;28;20653;-66
2021/12/17 11:20:41;;;;;;;48.47;19.90;;;9.90;99.90;;;;;;5034761;28;20211;-66
2021/12/17 11:23:11;;;;;;;51.93;21.07;;;9.90;99.90;;;;;;5034737;28;20254;-66
2021/12/17 11:25:38;;;;;;;55.17;20.20;;;9.90;99.90;;;;;;5034530;28;20253;-66
2021/12/17 11:28:07;;;;;;;59.40;20.77;;;10.00;99.90;;;;;;5033569;28;20179;-66
2021/12/17 11:30:34;;;;;;;47.10;19.93;;;10.10;99.90;;;;;;5034531;28;20199;-67
2021/12/17 11:33:02;;;;;;;51.93;22.00;;;10.00;99.90;;;;;;5034602;28;20179;-66
2021/12/17 11:35:29;;;;;;;50.90;20.53;;;10.00;99.90;;;;;;5034591;28;20194;-66
2021/12/17 11:38:02;;;;;;;41.10;19.90;;;10.00;99.90;;;;;;5034802;28;20180;-67
2021/12/17 11:40:36;;;;;;;46.03;20.53;;;10.00;99.90;;;;;;5034502;28;20226;-65
2021/12/17 11:43:23;;;;;;;44.17;20.03;;;9.90;99.90;;;;;;5034466;28;20188;-65
2021/12/17 11:46:05;;;;;;;49.47;20.37;;;10.10;99.90;;;;;;5034275;28;20195;-67
2021/12/17 11:48:34;;;;;;;48.27;20.70;;;10.10;99.90;;;;;;5034214;28;20233;-67
2021/12/17 11:51:04;;;;;;;55.43;20.97;;;10.00;99.90;;;;;;5034588;28;20226;-66
2021/12/17 11:53:31;;;;;;;53.57;19.93;;;9.90;99.90;;;;;;5033777;28;20588;-66
2021/12/17 11:55:59;;;;;;;49.80;18.10;;;9.90;99.90;;;;;;5034415;28;20700;-66
2021/12/17 11:58:53;;;;;;;45.40;19.70;;;9.90;99.90;;;;;;5034366;28;20179;-65
2021/12/17 12:01:46;;;;;;;60.30;21.63;;;9.90;99.90;;;;;;5029710;28;20323;-66
2021/12/17 12:04:33;;;;;;;51.33;19.07;;;10.00;99.90;;;;;;5019557;28;20179;-66
2021/12/17 12:07:03;;;;;;;54.77;20.77;;;9.90;99.90;;;;;;5034164;28;20210;-69
2021/12/17 12:09:55;;;;;;;39.43;19.40;;;9.90;99.90;;;;;;5033731;28;20175;-68
2021/12/17 12:12:21;;;;;;;50.87;21.23;;;10.00;99.90;;;;;;5032912;28;20258;-66
2021/12/17 12:14:47;;;;;;;48.83;19.40;;;10.00;99.90;;;;;;5033139;28;20182;-66
2021/12/17 12:17:12;;;;;;;45.63;19.17;;;10.00;99.90;;;;;;5033642;28;20176;-67
2021/12/17 12:19:49;;;;;;;61.67;21.60;;;10.10;99.90;;;;;;5033679;28;20229;-66
2021/12/17 12:22:29;;;;;;;57.93;21.33;;;10.20;99.90;;;;;;5032603;28;20254;-66
2021/12/17 12:25:30;;;;;;;43.77;20.37;;;10.20;99.90;;;;;;5033528;28;20187;-65
2021/12/17 12:27:55;;;;;;;51.63;20.13;;;10.20;99.90;;;;;;5033808;28;20183;-66
2021/12/17 12:30:39;;;;;;;41.17;19.03;;;10.20;99.90;;;;;;5033357;28;20199;-66
2021/12/17 12:33:07;;;;;;;38.47;18.80;;;10.30;99.90;;;;;;5033595;28;20211;-67
2021/12/17 12:35:33;;;;;;;44.63;18.60;;;10.20;99.90;;;;;;5033314;28;20597;-67
2021/12/17 12:38:20;;;;;;;38.00;18.93;;;10.20;99.90;;;;;;5033522;28;20187;-66
2021/12/17 12:40:55;;;;;;;41.03;19.17;;;10.20;99.90;;;;;;5033618;28;20673;-66
2021/12/17 12:43:27;;;;;;;40.93;20.23;;;10.20;99.90;;;;;;5033215;28;20233;-67
2021/12/17 12:45:53;;;;;;;35.63;18.73;;;10.30;99.90;;;;;;5031827;28;20261;-67
2021/12/17 12:48:38;;;;;;;37.87;20.03;;;10.30;99.90;;;;;;5032986;28;20187;-67
2021/12/17 12:51:14;;;;;;;46.33;19.20;;;10.40;99.90;;;;;;5031206;28;20284;-66
2021/12/17 12:53:46;;;;;;;38.97;19.13;;;10.30;99.90;;;;;;5033169;28;20173;-66
2021/12/17 12:56:19;;;;;;;36.93;18.37;;;10.20;99.90;;;;;;5033348;28;20649;-66
2021/12/17 12:58:48;;;;;;;40.87;18.07;;;10.20;99.90;;;;;;5033227;28;20175;-66
2021/12/17 13:01:16;;;;;;;37.17;18.60;;;10.20;99.90;;;;;;5032910;28;20202;-66
2021/12/17 13:03:44;;;;;;;45.40;21.30;;;10.30;99.90;;;;;;5032962;28;20179;-67
2021/12/17 13:06:16;;;;;;;33.73;17.77;;;10.30;99.90;;;;;;5033129;28;20538;-67
2021/12/17 13:08:42;;;;;;;39.07;18.90;;;10.20;99.90;;;;;;5033210;28;20251;-66
2021/12/17 13:11:08;;;;;;;38.70;18.13;;;10.30;99.90;;;;;;5032904;28;20199;-67
2021/12/17 13:13:43;;;;;;;29.90;17.47;;;10.30;99.90;;;;;;5032798;28;20652;-67
2021/12/17 13:16:19;;;;;;;36.23;17.37;;;10.50;99.90;;;;;;5032744;28;20266;-67
2021/12/17 13:21:41;;;;;;;34.30;17.80;;;10.40;99.90;;;;;;5032791;28;20698;-65
2021/12/17 13:24:20;;;;;;;30.77;17.07;;;10.40;99.90;;;;;;5032759;28;20201;-68
2021/12/17 13:27:14;;;;;;;30.80;16.70;;;10.40;99.90;;;;;;5032508;28;20301;-67
2021/12/17 13:29:43;;;;;;;28.50;15.47;;;10.40;99.90;;;;;;5032642;28;20575;-66
2021/12/17 13:32:10;;;;;;;25.03;16.23;;;10.50;99.90;;;;;;5032341;28;20607;-66
2021/12/17 13:34:42;;;;;;;27.47;16.87;;;10.50;99.90;;;;;;5032667;28;20164;-66
2021/12/17 13:37:20;;;;;;;22.80;15.37;;;10.50;99.90;;;;;;5032070;28;20178;-67
2021/12/17 13:39:55;;;;;;;22.27;14.67;;;10.60;99.90;;;;;;5031114;28;20179;-67
2021/12/17 13:42:34;;;;;;;21.83;15.70;;;10.50;99.90;;;;;;5032195;28;20179;-68
2021/12/17 13:45:12;;;;;;;19.17;13.83;;;10.50;99.90;;;;;;5032333;28;20183;-67
2021/12/17 13:47:50;;;;;;;26.73;15.83;;;10.50;99.90;;;;;;5032366;28;20171;-67
2021/12/17 13:50:20;;;;;;;16.77;13.50;;;10.50;99.90;;;;;;5030517;28;20188;-66
2021/12/17 13:52:50;;;;;;;19.77;13.27;;;10.50;99.90;;;;;;5012388;28;20203;-64
2021/12/17 13:55:19;;;;;;;15.13;13.07;;;10.50;99.90;;;;;;5012080;28;20206;-69
2021/12/17 13:57:45;;;;;;;12.33;10.97;;;10.50;99.90;;;;;;5027815;28;20211;-66
2021/12/17 14:00:21;;;;;;;14.33;10.67;;;10.40;99.90;;;;;;5030720;28;20203;-65
2021/12/17 14:02:48;;;;;;;11.07;10.07;;;10.30;99.90;;;;;;5032207;28;20233;-66
2021/12/17 14:05:25;;;;;;;10.63;9.50;;;10.40;99.90;;;;;;5030784;28;20628;-67
2021/12/17 14:07:53;;;;;;;11.40;9.60;;;10.30;99.90;;;;;;5032166;28;20179;-66
2021/12/17 14:10:38;;;;;;;11.63;10.40;;;10.30;99.90;;;;;;5030595;28;20191;-66
2021/12/17 14:13:14;;;;;;;13.40;11.97;;;10.40;99.90;;;;;;5031860;28;20184;-66
2021/12/17 14:15:43;;;;;;;10.63;9.60;;;10.30;99.90;;;;;;5031467;28;20171;-66
2021/12/17 14:18:10;;;;;;;12.13;10.77;;;10.30;99.90;;;;;;5032097;28;20688;-67
2021/12/17 14:20:48;;;;;;;12.23;10.93;;;10.30;99.90;;;;;;5030219;28;20608;-66
2021/12/17 14:23:32;;;;;;;11.87;10.57;;;10.30;99.90;;;;;;5031761;28;20183;-66
2021/12/17 14:26:01;;;;;;;11.30;10.17;;;10.30;99.90;;;;;;5031486;28;20206;-66
2021/12/17 14:28:32;;;;;;;11.07;9.97;;;10.30;99.90;;;;;;5031875;28;20498;-66
2021/12/17 14:31:30;;;;;;;11.47;10.40;;;10.30;99.90;;;;;;5031563;28;20195;-67
2021/12/17 14:33:57;;;;;;;12.20;10.77;;;10.30;99.90;;;;;;5030810;28;20678;-65
2021/12/17 14:36:28;;;;;;;13.27;11.87;;;10.30;99.90;;;;;;5031529;28;20175;-66
2021/12/17 14:39:04;;;;;;;11.27;10.17;;;10.30;99.90;;;;;;5030941;28;20547;-66
2021/12/17 14:41:45;;;;;;;11.27;10.27;;;10.40;99.90;;;;;;5031217;28;20207;-66
2021/12/17 14:47:00;;;;;;;11.07;10.03;;;10.30;99.90;;;;;;5031427;28;20202;-65
2021/12/17 15:03:02;;;;;;;11.97;10.67;;;10.00;99.90;;;;;;5030947;28;20550;-64
2021/12/17 15:05:30;;;;;;;11.87;10.70;;;10.00;99.90;;;;;;5031122;28;20209;-66
2021/12/17 15:07:58;;;;;;;13.80;11.60;;;9.90;99.90;;;;;;5031353;28;20225;-66
2021/12/17 15:10:25;;;;;;;12.13;10.93;;;9.90;99.90;;;;;;5031005;28;20200;-66
2021/12/17 15:12:57;;;;;;;14.97;11.40;;;9.90;99.90;;;;;;5030823;28;20194;-66
2021/12/17 15:15:29;;;;;;;12.60;11.07;;;9.80;99.90;;;;;;5030954;28;20198;-66
2021/12/17 15:17:56;;;;;;;13.03;11.67;;;9.80;99.90;;;;;;5031287;28;20181;-65
2021/12/17 15:20:28;;;;;;;11.53;10.43;;;9.70;99.90;;;;;;5031097;28;20340;-65
2021/12/17 15:22:56;;;;;;;13.07;11.70;;;9.70;99.90;;;;;;5030717;28;20270;-65
2021/12/17 15:25:22;;;;;;;13.07;11.73;;;9.60;99.90;;;;;;5030765;28;20286;-66
2021/12/17 15:27:50;;;;;;;11.73;10.67;;;9.60;99.90;;;;;;5031055;28;20172;-65
2021/12/17 15:30:21;;;;;;;13.27;11.70;;;9.60;99.90;;;;;;5031040;28;20187;-66
2021/12/17 15:32:47;;;;;;;10.80;9.80;;;9.60;99.90;;;;;;5030550;28;20182;-66
2021/12/17 15:35:17;;;;;;;11.67;10.57;;;9.70;99.90;;;;;;5031210;28;20664;-66
2021/12/17 15:37:43;;;;;;;11.63;10.40;;;9.70;99.90;;;;;;5030654;28;20257;-65
2021/12/17 15:40:10;;;;;;;13.50;12.10;;;9.60;99.90;;;;;;5031107;28;20262;-65
2021/12/17 15:42:35;;;;;;;12.30;11.00;;;9.60;99.90;;;;;;5030384;28;20184;-65
2021/12/17 15:45:01;;;;;;;12.87;11.57;;;9.60;99.90;;;;;;5029956;28;20489;-65
2021/12/17 15:47:27;;;;;;;11.93;10.83;;;9.50;99.90;;;;;;5030482;28;20669;-65
2021/12/17 15:49:52;;;;;;;12.60;11.30;;;9.40;99.90;;;;;;5030789;28;20596;-66
2021/12/17 15:52:18;;;;;;;11.70;10.47;;;9.40;99.90;;;;;;5034087;28;20171;-67
2021/12/17 15:54:44;;;;;;;11.33;10.33;;;9.40;99.90;;;;;;5034437;28;20553;-65
2021/12/17 15:57:11;;;;;;;11.90;10.70;;;9.30;99.90;;;;;;5034076;28;20189;-65
2021/12/17 15:59:36;;;;;;;12.80;11.80;;;9.30;99.90;;;;;;5034029;28;20194;-68
2021/12/17 16:02:03;;;;;;;14.47;10.93;;;9.20;99.90;;;;;;5032377;28;20179;-66
2021/12/17 16:04:37;;;;;;;14.17;11.03;;;9.20;99.90;;;;;;5034120;28;20267;-66